sensor_id;sensor_type;location;lat;lon;timestamp;P1;durP1;ratioP1;P2;durP2;ratioP2
3771;SDS011;1901;48.172;12.824;2022-12-07T00:02:06;20.13;;;12.00;;
3771;SDS011;1901;48.172;12.824;2022-12-07T00:04:33;22.57;;;12.37;;
3771;SDS011;1901;48.172;12.824;2022-12-07T00:07:00;17.43;;;11.60;;
3771;SDS011;1901;48.172;12.824;2022-12-07T00:09:29;19.83;;;12.67;;
3771;SDS011;1901;48.172;12.824;2022-12-07T00:11:56;25.97;;;12.87;;
3771;SDS011;1901;48.172;12.824;2022-12-07T00:14:23;19.53;;;11.83;;
3771;SDS011;1901;48.172;12.824;2022-12-07T00:16:50;21.00;;;12.77;;
3771;SDS011;1901;48.172;12.824;2022-12-07T00:19:18;23.27;;;13.20;;
3771;SDS011;1901;48.172;12.824;2022-12-07T00:21:45;21.17;;;13.10;;
3771;SDS011;1901;48.172;12.824;2022-12-07T00:24:13;18.77;;;12.40;;
3771;SDS011;1901;48.172;12.824;2022-12-07T00:26:42;20.33;;;11.97;;
3771;SDS011;1901;48.172;12.824;2022-12-07T00:29:11;28.73;;;12.83;;
3771;SDS011;1901;48.172;12.824;2022-12-07T00:31:39;22.73;;;13.10;;
3771;SDS011;1901;48.172;12.824;2022-12-07T00:34:07;20.23;;;12.60;;
3771;SDS011;1901;48.172;12.824;2022-12-07T00:36:34;16.50;;;10.80;;
3771;SDS011;1901;48.172;12.824;2022-12-07T00:39:02;21.50;;;12.10;;
3771;SDS011;1901;48.172;12.824;2022-12-07T00:41:29;21.40;;;13.60;;
3771;SDS011;1901;48.172;12.824;2022-12-07T00:43:58;22.03;;;12.00;;
3771;SDS011;1901;48.172;12.824;2022-12-07T00:46:25;22.07;;;12.00;;
3771;SDS011;1901;48.172;12.824;2022-12-07T00:48:53;15.57;;;9.77;;
3771;SDS011;1901;48.172;12.824;2022-12-07T00:51:21;27.03;;;13.47;;
3771;SDS011;1901;48.172;12.824;2022-12-07T00:53:49;23.63;;;11.87;;
3771;SDS011;1901;48.172;12.824;2022-12-07T00:56:17;19.17;;;11.27;;
3771;SDS011;1901;48.172;12.824;2022-12-07T00:58:44;21.73;;;12.07;;
3771;SDS011;1901;48.172;12.824;2022-12-07T01:01:17;24.20;;;12.83;;
3771;SDS011;1901;48.172;12.824;2022-12-07T01:03:44;20.13;;;10.77;;
3771;SDS011;1901;48.172;12.824;2022-12-07T01:06:14;20.70;;;11.17;;
3771;SDS011;1901;48.172;12.824;2022-12-07T01:08:41;20.87;;;10.87;;
3771;SDS011;1901;48.172;12.824;2022-12-07T01:11:09;20.17;;;11.50;;
3771;SDS011;1901;48.172;12.824;2022-12-07T01:13:38;17.87;;;11.13;;
3771;SDS011;1901;48.172;12.824;2022-12-07T01:16:06;19.40;;;11.03;;
3771;SDS011;1901;48.172;12.824;2022-12-07T01:18:35;16.17;;;9.77;;
3771;SDS011;1901;48.172;12.824;2022-12-07T01:21:03;22.37;;;11.37;;
3771;SDS011;1901;48.172;12.824;2022-12-07T01:23:30;16.27;;;10.47;;
3771;SDS011;1901;48.172;12.824;2022-12-07T01:25:58;18.83;;;10.67;;
3771;SDS011;1901;48.172;12.824;2022-12-07T01:28:26;17.53;;;11.47;;
3771;SDS011;1901;48.172;12.824;2022-12-07T01:31:00;16.50;;;10.57;;
3771;SDS011;1901;48.172;12.824;2022-12-07T01:33:27;19.17;;;10.50;;
3771;SDS011;1901;48.172;12.824;2022-12-07T01:36:01;23.33;;;11.63;;
3771;SDS011;1901;48.172;12.824;2022-12-07T01:38:29;16.10;;;10.00;;
3771;SDS011;1901;48.172;12.824;2022-12-07T01:40:56;18.30;;;10.63;;
3771;SDS011;1901;48.172;12.824;2022-12-07T01:43:24;14.97;;;9.70;;
3771;SDS011;1901;48.172;12.824;2022-12-07T01:45:52;16.17;;;9.90;;
3771;SDS011;1901;48.172;12.824;2022-12-07T01:48:20;14.53;;;9.20;;
3771;SDS011;1901;48.172;12.824;2022-12-07T01:50:49;17.07;;;10.67;;
3771;SDS011;1901;48.172;12.824;2022-12-07T01:53:19;17.27;;;10.27;;
3771;SDS011;1901;48.172;12.824;2022-12-07T01:55:48;20.27;;;10.97;;
3771;SDS011;1901;48.172;12.824;2022-12-07T01:58:17;15.13;;;10.33;;
3771;SDS011;1901;48.172;12.824;2022-12-07T02:00:44;16.30;;;10.23;;
3771;SDS011;1901;48.172;12.824;2022-12-07T02:03:13;16.50;;;10.67;;
3771;SDS011;1901;48.172;12.824;2022-12-07T02:05:41;23.30;;;11.37;;
3771;SDS011;1901;48.172;12.824;2022-12-07T02:08:11;15.53;;;10.60;;
3771;SDS011;1901;48.172;12.824;2022-12-07T02:10:40;16.53;;;10.80;;
3771;SDS011;1901;48.172;12.824;2022-12-07T02:13:08;18.80;;;10.60;;
3771;SDS011;1901;48.172;12.824;2022-12-07T02:15:39;16.00;;;10.13;;
3771;SDS011;1901;48.172;12.824;2022-12-07T02:18:09;17.80;;;10.30;;
3771;SDS011;1901;48.172;12.824;2022-12-07T02:20:38;18.53;;;10.30;;
3771;SDS011;1901;48.172;12.824;2022-12-07T02:23:16;14.97;;;8.83;;
3771;SDS011;1901;48.172;12.824;2022-12-07T02:26:06;14.23;;;9.53;;
3771;SDS011;1901;48.172;12.824;2022-12-07T02:28:37;16.10;;;9.07;;
3771;SDS011;1901;48.172;12.824;2022-12-07T02:31:07;17.70;;;9.63;;
3771;SDS011;1901;48.172;12.824;2022-12-07T02:33:39;14.80;;;9.37;;
3771;SDS011;1901;48.172;12.824;2022-12-07T02:36:08;16.50;;;10.70;;
3771;SDS011;1901;48.172;12.824;2022-12-07T02:38:38;16.67;;;8.87;;
3771;SDS011;1901;48.172;12.824;2022-12-07T02:41:07;12.27;;;8.97;;
3771;SDS011;1901;48.172;12.824;2022-12-07T02:43:38;19.67;;;11.63;;
3771;SDS011;1901;48.172;12.824;2022-12-07T02:46:08;13.43;;;9.60;;
3771;SDS011;1901;48.172;12.824;2022-12-07T02:48:37;16.00;;;9.60;;
3771;SDS011;1901;48.172;12.824;2022-12-07T02:51:05;17.97;;;10.87;;
3771;SDS011;1901;48.172;12.824;2022-12-07T02:53:33;15.77;;;9.23;;
3771;SDS011;1901;48.172;12.824;2022-12-07T02:56:01;15.50;;;9.03;;
3771;SDS011;1901;48.172;12.824;2022-12-07T02:58:32;17.23;;;10.53;;
3771;SDS011;1901;48.172;12.824;2022-12-07T03:01:04;14.10;;;9.73;;
3771;SDS011;1901;48.172;12.824;2022-12-07T03:03:37;14.33;;;9.47;;
3771;SDS011;1901;48.172;12.824;2022-12-07T03:06:06;13.13;;;8.40;;
3771;SDS011;1901;48.172;12.824;2022-12-07T03:08:42;16.37;;;8.97;;
3771;SDS011;1901;48.172;12.824;2022-12-07T03:11:12;13.80;;;9.13;;
3771;SDS011;1901;48.172;12.824;2022-12-07T03:13:41;15.70;;;9.80;;
3771;SDS011;1901;48.172;12.824;2022-12-07T03:16:09;15.60;;;8.93;;
3771;SDS011;1901;48.172;12.824;2022-12-07T03:18:42;14.30;;;9.17;;
3771;SDS011;1901;48.172;12.824;2022-12-07T03:21:14;11.50;;;7.20;;
3771;SDS011;1901;48.172;12.824;2022-12-07T03:23:42;14.87;;;8.97;;
3771;SDS011;1901;48.172;12.824;2022-12-07T03:26:12;14.77;;;9.60;;
3771;SDS011;1901;48.172;12.824;2022-12-07T03:28:42;16.00;;;10.17;;
3771;SDS011;1901;48.172;12.824;2022-12-07T03:31:10;15.50;;;9.40;;
3771;SDS011;1901;48.172;12.824;2022-12-07T03:33:42;13.27;;;9.07;;
3771;SDS011;1901;48.172;12.824;2022-12-07T03:36:11;13.40;;;8.83;;
3771;SDS011;1901;48.172;12.824;2022-12-07T03:38:42;14.30;;;8.90;;
3771;SDS011;1901;48.172;12.824;2022-12-07T03:41:12;14.80;;;9.20;;
3771;SDS011;1901;48.172;12.824;2022-12-07T03:43:41;15.60;;;9.73;;
3771;SDS011;1901;48.172;12.824;2022-12-07T03:46:11;13.60;;;8.63;;
3771;SDS011;1901;48.172;12.824;2022-12-07T03:48:43;13.23;;;9.07;;
3771;SDS011;1901;48.172;12.824;2022-12-07T03:51:14;12.33;;;9.43;;
3771;SDS011;1901;48.172;12.824;2022-12-07T03:53:44;15.03;;;8.60;;
3771;SDS011;1901;48.172;12.824;2022-12-07T03:56:13;14.30;;;9.03;;
3771;SDS011;1901;48.172;12.824;2022-12-07T03:58:40;14.00;;;9.47;;
3771;SDS011;1901;48.172;12.824;2022-12-07T04:01:08;14.90;;;8.73;;
3771;SDS011;1901;48.172;12.824;2022-12-07T04:03:35;17.10;;;10.03;;
3771;SDS011;1901;48.172;12.824;2022-12-07T04:06:04;16.53;;;10.60;;
3771;SDS011;1901;48.172;12.824;2022-12-07T04:08:31;14.03;;;9.37;;
3771;SDS011;1901;48.172;12.824;2022-12-07T04:10:58;13.00;;;9.17;;
3771;SDS011;1901;48.172;12.824;2022-12-07T04:13:25;16.20;;;10.27;;
3771;SDS011;1901;48.172;12.824;2022-12-07T04:15:53;18.80;;;10.27;;
3771;SDS011;1901;48.172;12.824;2022-12-07T04:18:20;16.37;;;9.67;;
3771;SDS011;1901;48.172;12.824;2022-12-07T04:20:47;14.20;;;9.70;;
3771;SDS011;1901;48.172;12.824;2022-12-07T04:23:15;13.43;;;8.70;;
3771;SDS011;1901;48.172;12.824;2022-12-07T04:25:43;14.37;;;9.63;;
3771;SDS011;1901;48.172;12.824;2022-12-07T04:28:10;17.77;;;10.57;;
3771;SDS011;1901;48.172;12.824;2022-12-07T04:30:37;20.73;;;11.13;;
3771;SDS011;1901;48.172;12.824;2022-12-07T04:33:04;16.83;;;10.07;;
3771;SDS011;1901;48.172;12.824;2022-12-07T04:35:31;17.60;;;11.40;;
3771;SDS011;1901;48.172;12.824;2022-12-07T04:37:59;16.57;;;9.37;;
3771;SDS011;1901;48.172;12.824;2022-12-07T04:40:27;16.90;;;10.70;;
3771;SDS011;1901;48.172;12.824;2022-12-07T04:42:54;17.40;;;10.10;;
3771;SDS011;1901;48.172;12.824;2022-12-07T04:45:21;13.63;;;9.53;;
3771;SDS011;1901;48.172;12.824;2022-12-07T04:47:48;27.87;;;12.60;;
3771;SDS011;1901;48.172;12.824;2022-12-07T04:50:16;18.87;;;12.20;;
3771;SDS011;1901;48.172;12.824;2022-12-07T04:52:43;32.27;;;17.40;;
3771;SDS011;1901;48.172;12.824;2022-12-07T04:55:10;17.67;;;11.77;;
3771;SDS011;1901;48.172;12.824;2022-12-07T04:57:38;18.60;;;11.47;;
3771;SDS011;1901;48.172;12.824;2022-12-07T05:00:06;15.67;;;10.87;;
3771;SDS011;1901;48.172;12.824;2022-12-07T05:02:34;20.43;;;12.40;;
3771;SDS011;1901;48.172;12.824;2022-12-07T05:05:01;18.97;;;11.57;;
3771;SDS011;1901;48.172;12.824;2022-12-07T05:07:28;15.50;;;10.73;;
3771;SDS011;1901;48.172;12.824;2022-12-07T05:09:55;12.83;;;9.97;;
3771;SDS011;1901;48.172;12.824;2022-12-07T05:12:22;17.33;;;10.57;;
3771;SDS011;1901;48.172;12.824;2022-12-07T05:14:51;14.67;;;9.30;;
3771;SDS011;1901;48.172;12.824;2022-12-07T05:17:18;15.70;;;10.07;;
3771;SDS011;1901;48.172;12.824;2022-12-07T05:19:45;18.70;;;10.47;;
3771;SDS011;1901;48.172;12.824;2022-12-07T05:22:12;16.37;;;10.63;;
3771;SDS011;1901;48.172;12.824;2022-12-07T05:24:40;13.67;;;9.43;;
3771;SDS011;1901;48.172;12.824;2022-12-07T05:27:07;19.40;;;10.83;;
3771;SDS011;1901;48.172;12.824;2022-12-07T05:29:34;13.90;;;9.17;;
3771;SDS011;1901;48.172;12.824;2022-12-07T05:32:03;14.07;;;10.17;;
3771;SDS011;1901;48.172;12.824;2022-12-07T05:34:30;18.60;;;10.03;;
3771;SDS011;1901;48.172;12.824;2022-12-07T05:36:57;21.43;;;13.30;;
3771;SDS011;1901;48.172;12.824;2022-12-07T05:39:24;19.17;;;12.87;;
3771;SDS011;1901;48.172;12.824;2022-12-07T05:41:51;18.63;;;10.50;;
3771;SDS011;1901;48.172;12.824;2022-12-07T05:44:36;16.80;;;11.10;;
3771;SDS011;1901;48.172;12.824;2022-12-07T05:47:05;14.33;;;8.07;;
3771;SDS011;1901;48.172;12.824;2022-12-07T05:49:32;17.03;;;11.57;;
3771;SDS011;1901;48.172;12.824;2022-12-07T05:51:59;18.20;;;9.80;;
3771;SDS011;1901;48.172;12.824;2022-12-07T05:54:26;18.80;;;12.27;;
3771;SDS011;1901;48.172;12.824;2022-12-07T05:56:54;13.43;;;8.97;;
3771;SDS011;1901;48.172;12.824;2022-12-07T05:59:21;15.50;;;10.30;;
3771;SDS011;1901;48.172;12.824;2022-12-07T06:01:47;16.33;;;10.40;;
3771;SDS011;1901;48.172;12.824;2022-12-07T06:04:16;18.10;;;10.40;;
3771;SDS011;1901;48.172;12.824;2022-12-07T06:06:43;21.63;;;11.73;;
3771;SDS011;1901;48.172;12.824;2022-12-07T06:09:10;22.07;;;12.20;;
3771;SDS011;1901;48.172;12.824;2022-12-07T06:11:38;19.20;;;11.80;;
3771;SDS011;1901;48.172;12.824;2022-12-07T06:14:22;18.30;;;12.40;;
3771;SDS011;1901;48.172;12.824;2022-12-07T06:16:50;17.23;;;11.70;;
3771;SDS011;1901;48.172;12.824;2022-12-07T06:19:18;17.27;;;11.63;;
3771;SDS011;1901;48.172;12.824;2022-12-07T06:21:46;17.93;;;11.60;;
3771;SDS011;1901;48.172;12.824;2022-12-07T06:24:14;21.23;;;12.77;;
3771;SDS011;1901;48.172;12.824;2022-12-07T06:26:41;19.17;;;11.90;;
3771;SDS011;1901;48.172;12.824;2022-12-07T06:29:09;17.17;;;11.30;;
3771;SDS011;1901;48.172;12.824;2022-12-07T06:31:36;19.10;;;11.20;;
3771;SDS011;1901;48.172;12.824;2022-12-07T06:34:05;20.00;;;12.07;;
3771;SDS011;1901;48.172;12.824;2022-12-07T06:36:34;17.93;;;12.87;;
3771;SDS011;1901;48.172;12.824;2022-12-07T06:39:01;17.90;;;12.20;;
3771;SDS011;1901;48.172;12.824;2022-12-07T06:41:28;20.97;;;13.97;;
3771;SDS011;1901;48.172;12.824;2022-12-07T06:43:55;17.93;;;8.20;;
3771;SDS011;1901;48.172;12.824;2022-12-07T06:46:22;16.07;;;9.90;;
3771;SDS011;1901;48.172;12.824;2022-12-07T06:48:50;14.43;;;9.43;;
3771;SDS011;1901;48.172;12.824;2022-12-07T06:51:17;20.73;;;12.03;;
3771;SDS011;1901;48.172;12.824;2022-12-07T06:53:45;18.00;;;10.30;;
3771;SDS011;1901;48.172;12.824;2022-12-07T06:56:12;15.53;;;10.50;;
3771;SDS011;1901;48.172;12.824;2022-12-07T06:58:40;17.00;;;10.63;;
3771;SDS011;1901;48.172;12.824;2022-12-07T07:01:08;20.17;;;12.00;;
3771;SDS011;1901;48.172;12.824;2022-12-07T07:03:35;18.27;;;10.77;;
3771;SDS011;1901;48.172;12.824;2022-12-07T07:06:03;16.90;;;10.87;;
3771;SDS011;1901;48.172;12.824;2022-12-07T07:08:30;15.37;;;10.40;;
3771;SDS011;1901;48.172;12.824;2022-12-07T07:10:58;16.97;;;11.47;;
3771;SDS011;1901;48.172;12.824;2022-12-07T07:13:26;17.70;;;13.43;;
3771;SDS011;1901;48.172;12.824;2022-12-07T07:15:53;20.63;;;12.87;;
3771;SDS011;1901;48.172;12.824;2022-12-07T07:18:20;19.67;;;11.70;;
3771;SDS011;1901;48.172;12.824;2022-12-07T07:20:47;19.37;;;12.50;;
3771;SDS011;1901;48.172;12.824;2022-12-07T07:23:14;17.00;;;11.07;;
3771;SDS011;1901;48.172;12.824;2022-12-07T07:25:42;22.80;;;14.67;;
3771;SDS011;1901;48.172;12.824;2022-12-07T07:28:10;20.77;;;13.70;;
3771;SDS011;1901;48.172;12.824;2022-12-07T07:30:37;19.90;;;12.43;;
3771;SDS011;1901;48.172;12.824;2022-12-07T07:33:05;19.13;;;10.97;;
3771;SDS011;1901;48.172;12.824;2022-12-07T07:35:33;28.07;;;13.17;;
3771;SDS011;1901;48.172;12.824;2022-12-07T07:38:00;18.20;;;11.60;;
3771;SDS011;1901;48.172;12.824;2022-12-07T07:40:28;17.40;;;10.73;;
3771;SDS011;1901;48.172;12.824;2022-12-07T07:42:55;18.20;;;11.67;;
3771;SDS011;1901;48.172;12.824;2022-12-07T07:45:25;15.43;;;10.00;;
3771;SDS011;1901;48.172;12.824;2022-12-07T07:47:52;14.90;;;9.63;;
3771;SDS011;1901;48.172;12.824;2022-12-07T07:50:20;16.87;;;10.97;;
3771;SDS011;1901;48.172;12.824;2022-12-07T07:52:47;16.53;;;11.03;;
3771;SDS011;1901;48.172;12.824;2022-12-07T07:55:14;19.17;;;12.60;;
3771;SDS011;1901;48.172;12.824;2022-12-07T07:57:41;17.83;;;11.00;;
3771;SDS011;1901;48.172;12.824;2022-12-07T08:00:09;15.43;;;10.33;;
3771;SDS011;1901;48.172;12.824;2022-12-07T08:02:38;16.40;;;10.80;;
3771;SDS011;1901;48.172;12.824;2022-12-07T08:05:06;16.43;;;11.00;;
3771;SDS011;1901;48.172;12.824;2022-12-07T08:07:33;17.80;;;9.40;;
3771;SDS011;1901;48.172;12.824;2022-12-07T08:10:00;20.37;;;12.07;;
3771;SDS011;1901;48.172;12.824;2022-12-07T08:12:28;21.07;;;12.43;;
3771;SDS011;1901;48.172;12.824;2022-12-07T08:14:55;23.50;;;13.50;;
3771;SDS011;1901;48.172;12.824;2022-12-07T08:17:22;23.00;;;14.43;;
3771;SDS011;1901;48.172;12.824;2022-12-07T08:19:50;18.47;;;11.33;;
3771;SDS011;1901;48.172;12.824;2022-12-07T08:22:17;20.00;;;12.80;;
3771;SDS011;1901;48.172;12.824;2022-12-07T08:24:45;17.03;;;10.33;;
3771;SDS011;1901;48.172;12.824;2022-12-07T08:27:12;20.63;;;12.83;;
3771;SDS011;1901;48.172;12.824;2022-12-07T08:29:39;15.67;;;11.23;;
3771;SDS011;1901;48.172;12.824;2022-12-07T08:32:06;19.90;;;11.87;;
3771;SDS011;1901;48.172;12.824;2022-12-07T08:34:33;18.70;;;11.97;;
3771;SDS011;1901;48.172;12.824;2022-12-07T08:37:02;18.73;;;11.63;;
3771;SDS011;1901;48.172;12.824;2022-12-07T08:39:29;16.67;;;11.17;;
3771;SDS011;1901;48.172;12.824;2022-12-07T08:41:56;19.50;;;11.70;;
3771;SDS011;1901;48.172;12.824;2022-12-07T08:44:23;19.20;;;11.77;;
3771;SDS011;1901;48.172;12.824;2022-12-07T08:46:51;16.43;;;9.80;;
3771;SDS011;1901;48.172;12.824;2022-12-07T08:49:20;19.30;;;12.20;;
3771;SDS011;1901;48.172;12.824;2022-12-07T08:51:49;24.27;;;14.70;;
3771;SDS011;1901;48.172;12.824;2022-12-07T08:54:17;21.57;;;13.03;;
3771;SDS011;1901;48.172;12.824;2022-12-07T08:56:45;19.20;;;11.43;;
3771;SDS011;1901;48.172;12.824;2022-12-07T08:59:14;20.53;;;12.57;;
3771;SDS011;1901;48.172;12.824;2022-12-07T09:01:43;16.87;;;10.67;;
3771;SDS011;1901;48.172;12.824;2022-12-07T09:04:11;18.87;;;12.10;;
3771;SDS011;1901;48.172;12.824;2022-12-07T09:06:38;17.77;;;11.33;;
3771;SDS011;1901;48.172;12.824;2022-12-07T09:09:05;18.67;;;12.57;;
3771;SDS011;1901;48.172;12.824;2022-12-07T09:11:34;16.93;;;10.83;;
3771;SDS011;1901;48.172;12.824;2022-12-07T09:14:01;18.80;;;11.70;;
3771;SDS011;1901;48.172;12.824;2022-12-07T09:16:28;17.97;;;10.93;;
3771;SDS011;1901;48.172;12.824;2022-12-07T09:18:55;14.93;;;10.30;;
3771;SDS011;1901;48.172;12.824;2022-12-07T09:21:23;16.00;;;10.43;;
3771;SDS011;1901;48.172;12.824;2022-12-07T09:23:50;23.57;;;12.07;;
3771;SDS011;1901;48.172;12.824;2022-12-07T09:26:17;15.27;;;10.10;;
3771;SDS011;1901;48.172;12.824;2022-12-07T09:28:45;17.13;;;10.00;;
3771;SDS011;1901;48.172;12.824;2022-12-07T09:31:12;16.93;;;10.73;;
3771;SDS011;1901;48.172;12.824;2022-12-07T09:33:40;15.60;;;9.97;;
3771;SDS011;1901;48.172;12.824;2022-12-07T09:36:07;20.80;;;11.10;;
3771;SDS011;1901;48.172;12.824;2022-12-07T09:38:35;19.67;;;11.07;;
3771;SDS011;1901;48.172;12.824;2022-12-07T09:41:04;16.73;;;11.30;;
3771;SDS011;1901;48.172;12.824;2022-12-07T09:43:31;18.50;;;10.17;;
3771;SDS011;1901;48.172;12.824;2022-12-07T09:46:01;19.07;;;9.97;;
3771;SDS011;1901;48.172;12.824;2022-12-07T09:48:29;20.83;;;11.83;;
3771;SDS011;1901;48.172;12.824;2022-12-07T09:50:57;17.77;;;11.50;;
3771;SDS011;1901;48.172;12.824;2022-12-07T09:53:25;20.50;;;11.33;;
3771;SDS011;1901;48.172;12.824;2022-12-07T09:55:53;25.23;;;11.10;;
3771;SDS011;1901;48.172;12.824;2022-12-07T09:58:22;21.67;;;12.43;;
3771;SDS011;1901;48.172;12.824;2022-12-07T10:00:50;21.37;;;12.07;;
3771;SDS011;1901;48.172;12.824;2022-12-07T10:03:18;16.30;;;10.10;;
3771;SDS011;1901;48.172;12.824;2022-12-07T10:05:47;15.53;;;9.50;;
3771;SDS011;1901;48.172;12.824;2022-12-07T10:08:15;17.87;;;10.47;;
3771;SDS011;1901;48.172;12.824;2022-12-07T10:10:42;15.40;;;9.63;;
3771;SDS011;1901;48.172;12.824;2022-12-07T10:13:10;24.07;;;10.93;;
3771;SDS011;1901;48.172;12.824;2022-12-07T10:15:45;16.40;;;10.47;;
3771;SDS011;1901;48.172;12.824;2022-12-07T10:18:27;15.80;;;9.20;;
3771;SDS011;1901;48.172;12.824;2022-12-07T10:21:02;15.57;;;9.13;;
3771;SDS011;1901;48.172;12.824;2022-12-07T10:23:29;15.53;;;9.07;;
3771;SDS011;1901;48.172;12.824;2022-12-07T10:25:57;15.93;;;10.00;;
3771;SDS011;1901;48.172;12.824;2022-12-07T10:28:27;15.63;;;9.73;;
3771;SDS011;1901;48.172;12.824;2022-12-07T10:31:00;15.47;;;9.67;;
3771;SDS011;1901;48.172;12.824;2022-12-07T10:33:31;22.13;;;11.10;;
3771;SDS011;1901;48.172;12.824;2022-12-07T10:35:59;17.40;;;10.30;;
3771;SDS011;1901;48.172;12.824;2022-12-07T10:38:27;13.87;;;9.97;;
3771;SDS011;1901;48.172;12.824;2022-12-07T10:41:03;14.80;;;10.50;;
3771;SDS011;1901;48.172;12.824;2022-12-07T10:43:31;18.73;;;11.03;;
3771;SDS011;1901;48.172;12.824;2022-12-07T10:48:46;14.07;;;9.50;;
3771;SDS011;1901;48.172;12.824;2022-12-07T10:51:19;16.37;;;10.20;;
3771;SDS011;1901;48.172;12.824;2022-12-07T10:53:56;12.10;;;9.10;;
3771;SDS011;1901;48.172;12.824;2022-12-07T10:56:36;12.87;;;8.30;;
3771;SDS011;1901;48.172;12.824;2022-12-07T10:59:20;13.50;;;8.23;;
3771;SDS011;1901;48.172;12.824;2022-12-07T11:01:49;16.20;;;9.00;;
3771;SDS011;1901;48.172;12.824;2022-12-07T11:04:23;14.27;;;7.37;;
3771;SDS011;1901;48.172;12.824;2022-12-07T11:06:53;14.10;;;8.40;;
3771;SDS011;1901;48.172;12.824;2022-12-07T11:09:32;12.43;;;8.10;;
3771;SDS011;1901;48.172;12.824;2022-12-07T11:12:04;10.60;;;7.13;;
3771;SDS011;1901;48.172;12.824;2022-12-07T11:14:35;11.27;;;6.57;;
3771;SDS011;1901;48.172;12.824;2022-12-07T11:17:05;10.53;;;7.50;;
3771;SDS011;1901;48.172;12.824;2022-12-07T11:19:42;14.70;;;7.67;;
3771;SDS011;1901;48.172;12.824;2022-12-07T11:22:17;11.97;;;7.93;;
3771;SDS011;1901;48.172;12.824;2022-12-07T11:24:48;11.60;;;8.23;;
3771;SDS011;1901;48.172;12.824;2022-12-07T11:27:19;12.43;;;8.43;;
3771;SDS011;1901;48.172;12.824;2022-12-07T11:29:55;16.90;;;9.30;;
3771;SDS011;1901;48.172;12.824;2022-12-07T11:32:31;11.63;;;8.33;;
3771;SDS011;1901;48.172;12.824;2022-12-07T11:35:05;12.70;;;8.63;;
3771;SDS011;1901;48.172;12.824;2022-12-07T11:37:35;11.20;;;6.83;;
3771;SDS011;1901;48.172;12.824;2022-12-07T11:40:03;11.13;;;6.40;;
3771;SDS011;1901;48.172;12.824;2022-12-07T11:42:33;9.87;;;6.23;;
3771;SDS011;1901;48.172;12.824;2022-12-07T11:45:10;11.47;;;7.20;;
3771;SDS011;1901;48.172;12.824;2022-12-07T11:47:41;8.77;;;6.00;;
3771;SDS011;1901;48.172;12.824;2022-12-07T11:50:16;8.30;;;6.00;;
3771;SDS011;1901;48.172;12.824;2022-12-07T11:52:48;7.97;;;6.20;;
3771;SDS011;1901;48.172;12.824;2022-12-07T11:55:19;10.50;;;7.83;;
3771;SDS011;1901;48.172;12.824;2022-12-07T11:57:49;12.70;;;7.17;;
3771;SDS011;1901;48.172;12.824;2022-12-07T12:00:19;8.23;;;5.40;;
3771;SDS011;1901;48.172;12.824;2022-12-07T12:02:48;11.07;;;7.33;;
3771;SDS011;1901;48.172;12.824;2022-12-07T12:05:20;9.53;;;6.70;;
3771;SDS011;1901;48.172;12.824;2022-12-07T12:07:48;8.93;;;6.20;;
3771;SDS011;1901;48.172;12.824;2022-12-07T12:10:19;11.80;;;6.93;;
3771;SDS011;1901;48.172;12.824;2022-12-07T12:12:52;12.40;;;6.13;;
3771;SDS011;1901;48.172;12.824;2022-12-07T12:15:26;8.03;;;4.73;;
3771;SDS011;1901;48.172;12.824;2022-12-07T12:20:43;10.33;;;5.70;;
3771;SDS011;1901;48.172;12.824;2022-12-07T12:23:12;7.53;;;5.17;;
3771;SDS011;1901;48.172;12.824;2022-12-07T12:25:40;13.00;;;5.93;;
3771;SDS011;1901;48.172;12.824;2022-12-07T12:28:17;8.70;;;5.97;;
3771;SDS011;1901;48.172;12.824;2022-12-07T12:30:45;8.90;;;5.50;;
3771;SDS011;1901;48.172;12.824;2022-12-07T12:33:30;9.57;;;6.10;;
3771;SDS011;1901;48.172;12.824;2022-12-07T12:38:49;6.60;;;5.13;;
3771;SDS011;1901;48.172;12.824;2022-12-07T12:43:58;8.40;;;5.80;;
3771;SDS011;1901;48.172;12.824;2022-12-07T12:49:24;8.50;;;6.03;;
3771;SDS011;1901;48.172;12.824;2022-12-07T12:51:57;7.53;;;5.80;;
3771;SDS011;1901;48.172;12.824;2022-12-07T12:54:27;9.03;;;6.10;;
3771;SDS011;1901;48.172;12.824;2022-12-07T12:56:55;10.53;;;6.50;;
3771;SDS011;1901;48.172;12.824;2022-12-07T12:59:26;9.70;;;6.80;;
3771;SDS011;1901;48.172;12.824;2022-12-07T13:01:56;9.43;;;6.43;;
3771;SDS011;1901;48.172;12.824;2022-12-07T13:07:10;10.77;;;6.27;;
3771;SDS011;1901;48.172;12.824;2022-12-07T13:09:41;13.07;;;6.70;;
3771;SDS011;1901;48.172;12.824;2022-12-07T13:12:11;10.67;;;7.17;;
3771;SDS011;1901;48.172;12.824;2022-12-07T13:14:43;11.23;;;7.70;;
3771;SDS011;1901;48.172;12.824;2022-12-07T13:20:00;10.57;;;7.57;;
3771;SDS011;1901;48.172;12.824;2022-12-07T13:22:34;14.23;;;8.43;;
3771;SDS011;1901;48.172;12.824;2022-12-07T13:25:07;12.87;;;8.30;;
3771;SDS011;1901;48.172;12.824;2022-12-07T13:27:36;11.17;;;7.80;;
3771;SDS011;1901;48.172;12.824;2022-12-07T13:30:09;15.20;;;9.70;;
3771;SDS011;1901;48.172;12.824;2022-12-07T13:32:40;15.00;;;8.93;;
3771;SDS011;1901;48.172;12.824;2022-12-07T13:37:49;11.87;;;6.93;;
3771;SDS011;1901;48.172;12.824;2022-12-07T13:40:19;12.13;;;9.17;;
3771;SDS011;1901;48.172;12.824;2022-12-07T13:42:46;13.90;;;7.77;;
3771;SDS011;1901;48.172;12.824;2022-12-07T13:45:20;11.77;;;7.80;;
3771;SDS011;1901;48.172;12.824;2022-12-07T13:47:48;15.63;;;7.03;;
3771;SDS011;1901;48.172;12.824;2022-12-07T13:50:22;12.20;;;7.80;;
3771;SDS011;1901;48.172;12.824;2022-12-07T13:52:50;13.90;;;8.10;;
3771;SDS011;1901;48.172;12.824;2022-12-07T13:55:18;12.03;;;7.70;;
3771;SDS011;1901;48.172;12.824;2022-12-07T13:57:46;11.43;;;7.40;;
3771;SDS011;1901;48.172;12.824;2022-12-07T14:00:16;15.93;;;9.00;;
3771;SDS011;1901;48.172;12.824;2022-12-07T14:02:54;13.60;;;7.77;;
3771;SDS011;1901;48.172;12.824;2022-12-07T14:05:25;12.60;;;7.80;;
3771;SDS011;1901;48.172;12.824;2022-12-07T14:07:54;13.23;;;8.00;;
3771;SDS011;1901;48.172;12.824;2022-12-07T14:10:23;14.07;;;8.43;;
3771;SDS011;1901;48.172;12.824;2022-12-07T14:12:51;11.30;;;7.30;;
3771;SDS011;1901;48.172;12.824;2022-12-07T14:15:19;12.33;;;7.57;;
3771;SDS011;1901;48.172;12.824;2022-12-07T14:17:51;16.67;;;9.50;;
3771;SDS011;1901;48.172;12.824;2022-12-07T14:23:21;12.90;;;7.50;;
3771;SDS011;1901;48.172;12.824;2022-12-07T14:25:50;14.73;;;8.10;;
3771;SDS011;1901;48.172;12.824;2022-12-07T14:28:25;15.57;;;8.70;;
3771;SDS011;1901;48.172;12.824;2022-12-07T14:30:52;15.07;;;8.67;;
3771;SDS011;1901;48.172;12.824;2022-12-07T14:33:19;12.60;;;9.20;;
3771;SDS011;1901;48.172;12.824;2022-12-07T14:35:47;12.77;;;8.77;;
3771;SDS011;1901;48.172;12.824;2022-12-07T14:38:15;15.67;;;9.00;;
3771;SDS011;1901;48.172;12.824;2022-12-07T14:40:43;12.77;;;7.70;;
3771;SDS011;1901;48.172;12.824;2022-12-07T14:43:12;11.77;;;7.90;;
3771;SDS011;1901;48.172;12.824;2022-12-07T14:45:41;14.23;;;8.20;;
3771;SDS011;1901;48.172;12.824;2022-12-07T14:48:09;13.40;;;8.70;;
3771;SDS011;1901;48.172;12.824;2022-12-07T14:50:38;22.07;;;11.33;;
3771;SDS011;1901;48.172;12.824;2022-12-07T14:53:07;24.23;;;11.00;;
3771;SDS011;1901;48.172;12.824;2022-12-07T14:55:36;16.80;;;9.67;;
3771;SDS011;1901;48.172;12.824;2022-12-07T14:58:04;17.87;;;10.50;;
3771;SDS011;1901;48.172;12.824;2022-12-07T15:00:32;16.83;;;10.70;;
3771;SDS011;1901;48.172;12.824;2022-12-07T15:03:00;14.27;;;9.33;;
3771;SDS011;1901;48.172;12.824;2022-12-07T15:05:27;15.53;;;9.00;;
3771;SDS011;1901;48.172;12.824;2022-12-07T15:07:54;15.87;;;9.03;;
3771;SDS011;1901;48.172;12.824;2022-12-07T15:10:22;14.20;;;8.50;;
3771;SDS011;1901;48.172;12.824;2022-12-07T15:12:49;17.47;;;9.53;;
3771;SDS011;1901;48.172;12.824;2022-12-07T15:15:16;17.40;;;10.10;;
3771;SDS011;1901;48.172;12.824;2022-12-07T15:17:45;13.00;;;8.40;;